createdAt,value
2019-03-08T00:00:03.064Z,7.34
2019-03-08T00:10:03.026Z,7.35
2019-03-08T00:20:02.312Z,7.42
2019-03-08T00:30:02.635Z,7.27
2019-03-08T00:40:02.568Z,7.66
2019-03-08T00:50:02.184Z,7.71
2019-03-08T01:00:03.435Z,7.62
2019-03-08T01:10:02.298Z,7.70
2019-03-08T01:20:02.530Z,6.54
2019-03-08T01:30:03.595Z,5.59
2019-03-08T01:40:03.997Z,5.36
2019-03-08T01:50:02.640Z,5.21
2019-03-08T02:00:03.023Z,5.26
2019-03-08T02:10:02.523Z,5.44
2019-03-08T02:20:02.979Z,5.61
2019-03-08T02:30:03.304Z,6.00
2019-03-08T02:40:02.582Z,6.64
2019-03-08T02:50:02.183Z,6.68
2019-03-08T03:00:03.650Z,6.60
2019-03-08T03:10:02.470Z,6.61
2019-03-08T03:20:02.977Z,6.38
2019-03-08T03:30:03.169Z,6.39
2019-03-08T03:40:03.009Z,6.47
2019-03-08T03:50:02.748Z,6.85
2019-03-08T04:00:03.343Z,6.82
2019-03-08T04:10:03.078Z,6.93
2019-03-08T04:20:02.657Z,7.10
2019-03-08T04:30:02.954Z,6.82
2019-03-08T04:40:03.049Z,6.61
2019-03-08T04:50:02.662Z,7.29
2019-03-08T05:00:03.035Z,6.99
2019-03-08T05:10:02.972Z,6.76
2019-03-08T05:20:02.503Z,7.14
2019-03-08T05:30:04.451Z,7.13
2019-03-08T05:40:03.025Z,7.30
2019-03-08T05:50:02.698Z,7.39
2019-03-08T06:00:03.491Z,7.55
2019-03-08T06:10:03.180Z,7.41
2019-03-08T06:20:02.647Z,7.45
2019-03-08T06:30:03.114Z,7.71
2019-03-08T06:40:02.870Z,8.22
2019-03-08T06:50:02.671Z,8.17
2019-03-08T07:00:03.021Z,8.63
2019-03-08T07:10:03.099Z,8.35
2019-03-08T07:20:02.530Z,8.20
2019-03-08T07:30:02.973Z,9.13
2019-03-08T07:40:03.457Z,8.95
2019-03-08T07:50:02.263Z,8.66
2019-03-08T08:00:03.678Z,8.59
2019-03-08T08:10:02.382Z,8.65
2019-03-08T08:20:02.378Z,10.41
2019-03-08T08:30:02.690Z,10.20
2019-03-08T08:40:02.725Z,9.50
2019-03-08T08:50:02.623Z,9.56
2019-03-08T09:00:03.062Z,9.04
2019-03-08T09:10:02.143Z,9.47
2019-03-08T09:20:03.122Z,9.29
2019-03-08T09:30:02.813Z,8.83
2019-03-08T09:40:03.124Z,8.76
2019-03-08T09:50:02.788Z,8.98
2019-03-08T10:00:03.351Z,8.91
2019-03-08T10:10:02.369Z,9.21
2019-03-08T10:20:02.518Z,9.39
2019-03-08T10:30:02.759Z,10.08
2019-03-08T10:40:02.880Z,9.59
2019-03-08T10:50:02.615Z,9.98
2019-03-08T11:00:03.089Z,10.36
2019-03-08T11:10:03.157Z,9.89
2019-03-08T11:20:03.367Z,10.16
2019-03-08T11:30:03.487Z,10.91
2019-03-08T11:40:02.492Z,10.51
2019-03-08T11:50:02.558Z,10.62
2019-03-08T12:00:03.013Z,10.68
2019-03-08T12:10:02.762Z,10.65
2019-03-08T12:20:02.859Z,10.35
2019-03-08T12:30:04.273Z,9.80
2019-03-08T12:40:03.354Z,9.41
2019-03-08T12:50:02.365Z,9.44
2019-03-08T13:00:08.153Z,9.51
2019-03-08T13:10:03.119Z,9.57
2019-03-08T13:20:02.428Z,9.47
2019-03-08T13:30:03.162Z,9.54
2019-03-08T13:40:02.928Z,9.82
2019-03-08T13:50:03.051Z,9.79
2019-03-08T14:00:04.943Z,10.12
2019-03-08T14:10:03.134Z,10.02
2019-03-08T14:20:03.018Z,10.50
2019-03-08T14:30:03.521Z,9.97
2019-03-08T14:40:02.510Z,9.78
2019-03-08T14:50:02.291Z,9.76
2019-03-08T15:00:03.141Z,9.50
2019-03-08T15:10:06.029Z,10.04
2019-03-08T15:20:02.736Z,9.29
2019-03-08T15:30:02.931Z,8.97
2019-03-08T15:40:02.562Z,8.95
2019-03-08T15:50:04.451Z,9.29
2019-03-08T16:00:03.844Z,9.12
2019-03-08T16:10:03.043Z,9.09
2019-03-08T16:20:03.883Z,8.56
2019-03-08T16:30:08.607Z,8.52
2019-03-08T16:40:03.033Z,8.36
2019-03-08T16:50:02.587Z,7.98
2019-03-08T17:00:03.143Z,7.57
2019-03-08T17:10:03.028Z,7.27
2019-03-08T17:20:02.327Z,7.03
2019-03-08T17:30:03.483Z,6.90
2019-03-08T17:40:02.323Z,6.82
2019-03-08T17:50:02.225Z,6.60
2019-03-08T18:00:03.621Z,6.53
2019-03-08T18:10:02.611Z,6.47
2019-03-08T18:20:03.171Z,6.24
2019-03-08T18:30:03.843Z,5.97
2019-03-08T18:40:02.881Z,5.70
2019-03-08T18:50:02.787Z,5.47
2019-03-08T19:00:03.293Z,5.27
2019-03-08T19:10:03.006Z,5.10
2019-03-08T19:20:02.762Z,5.13
2019-03-08T19:30:02.969Z,4.87
2019-03-08T19:40:02.969Z,4.98
2019-03-08T19:50:02.746Z,4.97
2019-03-08T20:00:03.694Z,5.28
2019-03-08T20:10:02.407Z,5.28
2019-03-08T20:20:03.174Z,5.09
2019-03-08T20:30:02.653Z,5.07
2019-03-08T20:40:02.678Z,5.02
2019-03-08T20:50:02.383Z,5.10
2019-03-08T21:00:02.868Z,5.26
2019-03-08T21:10:02.626Z,5.43
2019-03-08T21:20:03.003Z,5.14
2019-03-08T21:30:03.453Z,5.11
2019-03-08T21:40:02.644Z,5.13
2019-03-08T21:50:02.447Z,5.34
2019-03-08T22:00:03.402Z,5.20
2019-03-08T22:10:02.778Z,4.76
2019-03-08T22:20:02.900Z,4.83
2019-03-08T22:30:03.597Z,5.21
2019-03-08T22:40:03.066Z,5.51
2019-03-08T22:50:02.738Z,5.22
2019-03-08T23:00:02.968Z,5.04
2019-03-08T23:10:02.671Z,4.73
2019-03-08T23:20:03.235Z,4.91
2019-03-08T23:30:03.273Z,4.89
2019-03-08T23:40:02.574Z,5.88
2019-03-08T23:50:02.692Z,6.19
